createdAt,value
2018-02-08T00:02:11.973Z,22.95
2018-02-08T00:04:39.815Z,24.27
2018-02-08T00:07:07.600Z,22.92
2018-02-08T00:09:35.425Z,22.95
2018-02-08T00:12:03.210Z,27.90
2018-02-08T00:14:30.998Z,23.77
2018-02-08T00:16:58.808Z,24.02
2018-02-08T00:19:26.546Z,25.70
2018-02-08T00:21:54.363Z,26.30
2018-02-08T00:24:22.151Z,24.98
2018-02-08T00:26:49.997Z,22.45
2018-02-08T00:29:17.804Z,24.08
2018-02-08T00:31:45.610Z,21.60
2018-02-08T00:34:13.494Z,23.08
2018-02-08T00:36:41.388Z,23.20
2018-02-08T00:39:09.114Z,22.92
2018-02-08T00:41:36.902Z,23.00
2018-02-08T00:44:04.655Z,20.88
2018-02-08T00:46:32.498Z,22.95
2018-02-08T00:49:00.251Z,21.60
2018-02-08T00:51:28.045Z,28.80
2018-02-08T00:53:55.778Z,22.98
2018-02-08T00:56:23.570Z,25.62
2018-02-08T00:58:51.320Z,22.40
2018-02-08T01:01:19.134Z,21.17
2018-02-08T01:03:46.880Z,29.45
2018-02-08T01:06:14.704Z,24.75
2018-02-08T01:08:42.458Z,23.33
2018-02-08T01:11:10.239Z,22.60
2018-02-08T01:13:38.032Z,23.40
2018-02-08T01:16:05.814Z,25.88
2018-02-08T01:18:33.559Z,23.15
2018-02-08T01:21:01.370Z,26.02
2018-02-08T01:23:29.166Z,23.02
2018-02-08T01:25:56.952Z,23.48
2018-02-08T01:28:24.763Z,23.98
2018-02-08T01:30:52.659Z,20.80
2018-02-08T01:33:20.410Z,21.33
2018-02-08T01:35:48.201Z,27.23
2018-02-08T01:38:15.952Z,19.52
2018-02-08T01:40:43.762Z,21.85
2018-02-08T01:43:11.475Z,22.52
2018-02-08T01:45:39.276Z,22.98
2018-02-08T01:48:07.074Z,23.45
2018-02-08T01:50:34.859Z,21.98
2018-02-08T01:53:02.655Z,22.60
2018-02-08T01:55:30.450Z,25.62
2018-02-08T01:57:58.197Z,23.02
2018-02-08T02:00:25.939Z,24.50
2018-02-08T02:02:53.748Z,23.45
2018-02-08T02:05:21.588Z,21.05
2018-02-08T02:07:49.379Z,27.42
2018-02-08T02:10:17.174Z,23.52
2018-02-08T02:12:44.945Z,23.50
2018-02-08T02:15:12.707Z,21.08
2018-02-08T02:17:40.486Z,22.60
2018-02-08T02:20:08.396Z,23.08
2018-02-08T02:22:36.178Z,25.42
2018-02-08T02:25:03.937Z,26.55
2018-02-08T02:27:31.732Z,21.27
2018-02-08T02:29:59.480Z,21.27
2018-02-08T02:32:27.262Z,24.55
2018-02-08T02:34:55.052Z,23.20
2018-02-08T02:37:22.894Z,24.95
2018-02-08T02:39:50.622Z,23.73
2018-02-08T02:42:18.545Z,21.17
2018-02-08T02:44:46.349Z,20.73
2018-02-08T02:47:14.106Z,20.12
2018-02-08T02:49:41.846Z,24.70
2018-02-08T02:52:09.639Z,27.15
2018-02-08T02:54:37.507Z,23.98
2018-02-08T02:57:05.284Z,21.67
2018-02-08T02:59:33.023Z,24.25
2018-02-08T03:02:00.825Z,22.10
2018-02-08T03:04:28.579Z,21.48
2018-02-08T03:06:56.407Z,28.08
2018-02-08T03:09:24.278Z,22.25
2018-02-08T03:11:52.043Z,24.80
2018-02-08T03:14:19.806Z,23.12
2018-02-08T03:16:47.586Z,24.23
2018-02-08T03:19:15.396Z,21.33
2018-02-08T03:21:43.192Z,23.10
2018-02-08T03:24:10.941Z,25.25
2018-02-08T03:26:38.856Z,25.55
2018-02-08T03:29:06.637Z,23.95
2018-02-08T03:31:34.488Z,25.08
2018-02-08T03:34:02.295Z,21.48
2018-02-08T03:36:30.107Z,21.73
2018-02-08T03:38:57.966Z,22.17
2018-02-08T03:41:25.748Z,24.90
2018-02-08T03:43:53.535Z,25.42
2018-02-08T03:46:21.280Z,21.73
2018-02-08T03:48:49.119Z,23.02
2018-02-08T03:51:16.926Z,23.87
2018-02-08T03:53:44.718Z,23.30
2018-02-08T03:56:12.463Z,22.65
2018-02-08T03:58:40.295Z,28.58
2018-02-08T04:01:08.054Z,23.92
2018-02-08T04:03:35.832Z,22.27
2018-02-08T04:06:03.560Z,23.42
2018-02-08T04:08:31.411Z,23.17
2018-02-08T04:10:59.187Z,25.40
2018-02-08T04:13:26.988Z,26.33
2018-02-08T04:15:54.785Z,25.15
2018-02-08T04:18:22.586Z,25.73
2018-02-08T04:20:50.349Z,19.70
2018-02-08T04:23:18.176Z,21.73
2018-02-08T04:25:45.901Z,19.70
2018-02-08T04:28:13.733Z,22.90
2018-02-08T04:30:41.533Z,23.40
2018-02-08T04:33:09.330Z,22.33
2018-02-08T04:35:37.164Z,23.85
2018-02-08T04:38:04.968Z,22.00
2018-02-08T04:40:44.388Z,21.87
2018-02-08T04:43:24.141Z,23.23
2018-02-08T04:46:03.825Z,28.23
2018-02-08T04:48:31.628Z,23.70
2018-02-08T04:50:59.377Z,23.12
2018-02-08T04:53:27.178Z,23.05
2018-02-08T04:55:54.955Z,19.80
2018-02-08T04:58:22.736Z,23.45
2018-02-08T05:00:50.550Z,25.33
2018-02-08T05:03:18.333Z,21.55
2018-02-08T05:05:46.090Z,21.00
2018-02-08T05:08:13.967Z,25.95
2018-02-08T05:10:41.715Z,23.45
2018-02-08T05:13:09.547Z,25.77
2018-02-08T05:15:37.281Z,20.62
2018-02-08T05:18:05.135Z,23.55
2018-02-08T05:20:32.926Z,23.67
2018-02-08T05:23:00.690Z,22.73
2018-02-08T05:25:28.530Z,26.15
2018-02-08T05:27:56.404Z,27.90
2018-02-08T05:30:24.187Z,25.20
2018-02-08T05:32:52.015Z,22.45
2018-02-08T05:35:19.746Z,25.60
2018-02-08T05:37:47.524Z,24.90
2018-02-08T05:40:15.325Z,20.88
2018-02-08T05:42:43.109Z,25.60
2018-02-08T05:45:10.901Z,24.67
2018-02-08T05:47:38.727Z,22.42
2018-02-08T05:50:06.550Z,31.12
2018-02-08T05:52:34.268Z,23.90
2018-02-08T05:55:02.100Z,29.00
2018-02-08T05:57:29.870Z,26.33
2018-02-08T05:59:57.719Z,25.33
2018-02-08T06:02:25.554Z,23.08
2018-02-08T06:04:53.347Z,21.20
2018-02-08T06:07:21.146Z,22.85
2018-02-08T06:09:48.999Z,23.55
2018-02-08T06:12:16.799Z,23.38
2018-02-08T06:14:44.615Z,23.27
2018-02-08T06:17:12.395Z,23.40
2018-02-08T06:19:40.226Z,22.90
2018-02-08T06:22:08.016Z,23.20
2018-02-08T06:24:35.875Z,22.17
2018-02-08T06:27:03.667Z,20.50
2018-02-08T06:29:31.436Z,19.17
2018-02-08T06:31:59.231Z,22.48
2018-02-08T06:34:27.056Z,21.12
2018-02-08T06:36:54.899Z,22.80
2018-02-08T06:39:22.740Z,27.65
2018-02-08T06:41:50.539Z,19.50
2018-02-08T06:44:18.396Z,20.80
2018-02-08T06:46:46.257Z,20.58
2018-02-08T06:49:14.103Z,26.40
2018-02-08T06:51:41.901Z,25.77
2018-02-08T06:54:09.726Z,26.20
2018-02-08T06:56:37.537Z,26.35
2018-02-08T06:59:05.345Z,22.35
2018-02-08T07:01:33.140Z,20.12
2018-02-08T07:04:00.955Z,25.98
2018-02-08T07:06:28.761Z,25.60
2018-02-08T07:08:56.556Z,20.73
2018-02-08T07:11:24.300Z,28.90
2018-02-08T07:13:52.294Z,20.23
2018-02-08T07:16:20.132Z,27.40
2018-02-08T07:18:47.952Z,24.35
2018-02-08T07:21:15.752Z,21.20
2018-02-08T07:23:43.613Z,19.23
2018-02-08T07:26:11.575Z,20.73
2018-02-08T07:28:39.576Z,18.27
2018-02-08T07:31:07.439Z,24.35
2018-02-08T07:33:35.335Z,19.50
2018-02-08T07:36:03.230Z,28.58
2018-02-08T07:38:31.019Z,25.52
2018-02-08T07:40:58.913Z,24.23
2018-02-08T07:43:26.663Z,20.48
2018-02-08T07:45:54.571Z,24.00
2018-02-08T07:48:22.457Z,22.27
2018-02-08T07:50:50.387Z,24.00
2018-02-08T07:53:18.361Z,21.17
2018-02-08T07:55:46.257Z,25.00
2018-02-08T07:58:14.178Z,27.20
2018-02-08T08:00:42.134Z,29.58
2018-02-08T08:03:10.070Z,23.92
2018-02-08T08:05:38.121Z,23.40
2018-02-08T08:08:06.080Z,21.40
2018-02-08T08:10:34.137Z,24.98
2018-02-08T08:13:02.044Z,23.48
2018-02-08T08:15:29.876Z,22.80
2018-02-08T08:17:57.775Z,26.80
2018-02-08T08:20:25.735Z,27.27
2018-02-08T08:22:53.707Z,23.20
2018-02-08T08:25:21.606Z,26.55
2018-02-08T08:27:49.576Z,24.35
2018-02-08T08:30:17.472Z,28.75
2018-02-08T08:32:45.324Z,25.92
2018-02-08T08:35:13.379Z,27.60
2018-02-08T08:37:41.224Z,25.58
2018-02-08T08:40:09.167Z,24.80
2018-02-08T08:42:37.156Z,24.90
2018-02-08T08:45:05.112Z,26.67
2018-02-08T08:47:32.964Z,29.17
2018-02-08T08:50:00.925Z,28.58
2018-02-08T08:52:28.816Z,29.27
2018-02-08T08:54:56.763Z,31.25
2018-02-08T08:57:24.714Z,32.25
2018-02-08T08:59:52.668Z,29.40
2018-02-08T09:02:20.621Z,28.15
2018-02-08T09:04:48.648Z,30.95
2018-02-08T09:07:16.582Z,30.45
2018-02-08T09:09:44.425Z,28.77
2018-02-08T09:12:12.223Z,32.17
2018-02-08T09:14:40.175Z,28.67
2018-02-08T09:17:08.111Z,31.27
2018-02-08T09:19:36.022Z,25.90
2018-02-08T09:22:04.044Z,30.10
2018-02-08T09:24:31.838Z,32.08
2018-02-08T09:26:59.699Z,27.02
2018-02-08T09:29:27.663Z,31.45
2018-02-08T09:31:55.603Z,33.60
2018-02-08T09:34:23.539Z,33.22
2018-02-08T09:36:51.544Z,31.70
2018-02-08T09:39:19.419Z,29.83
2018-02-08T09:41:47.438Z,31.10
2018-02-08T09:44:15.294Z,35.77
2018-02-08T09:46:43.247Z,33.30
2018-02-08T09:49:11.182Z,32.50
2018-02-08T09:51:39.094Z,31.07
2018-02-08T09:54:07.068Z,32.00
2018-02-08T09:56:34.985Z,29.20
2018-02-08T09:59:02.918Z,33.43
2018-02-08T10:01:30.837Z,35.10
2018-02-08T10:03:58.698Z,34.80
2018-02-08T10:06:26.616Z,34.47
2018-02-08T10:08:54.583Z,33.97
2018-02-08T10:11:22.524Z,36.17
2018-02-08T10:13:50.459Z,33.53
2018-02-08T10:16:18.388Z,37.97
2018-02-08T10:18:46.315Z,39.70
2018-02-08T10:21:14.249Z,37.20
2018-02-08T10:23:42.180Z,39.27
2018-02-08T10:26:10.174Z,38.93
2018-02-08T10:28:37.980Z,39.93
2018-02-08T10:31:05.920Z,39.17
2018-02-08T10:33:33.840Z,37.20
2018-02-08T10:36:01.825Z,39.23
2018-02-08T10:38:29.613Z,35.90
2018-02-08T10:40:57.554Z,36.90
2018-02-08T10:43:25.344Z,45.43
2018-02-08T10:45:53.173Z,37.83
2018-02-08T10:48:20.916Z,37.50
2018-02-08T10:50:48.718Z,34.90
2018-02-08T10:53:16.451Z,36.73
2018-02-08T10:55:44.309Z,40.60
2018-02-08T10:58:12.113Z,36.70
2018-02-08T11:00:39.945Z,36.97
2018-02-08T11:03:07.705Z,36.60
2018-02-08T11:05:35.493Z,38.80
2018-02-08T11:08:03.379Z,30.50
2018-02-08T11:10:31.141Z,40.33
2018-02-08T11:12:58.924Z,31.00
2018-02-08T11:15:26.924Z,35.47
2018-02-08T11:17:54.733Z,29.07
2018-02-08T11:20:22.519Z,33.77
2018-02-08T11:22:50.348Z,33.33
2018-02-08T11:25:18.196Z,32.30
2018-02-08T11:27:46.118Z,33.17
2018-02-08T11:30:13.909Z,33.50
2018-02-08T11:32:41.754Z,28.60
2018-02-08T11:35:09.545Z,26.07
2018-02-08T11:37:37.434Z,25.27
2018-02-08T11:40:05.237Z,18.77
2018-02-08T11:42:33.077Z,24.70
2018-02-08T11:45:00.985Z,21.17
2018-02-08T11:47:28.810Z,23.13
2018-02-08T11:49:56.553Z,22.10
2018-02-08T11:52:24.557Z,25.30
2018-02-08T11:54:52.399Z,28.47
2018-02-08T11:57:20.251Z,26.13
2018-02-08T11:59:48.080Z,24.10
2018-02-08T12:02:15.914Z,29.37
2018-02-08T12:04:43.763Z,25.47
2018-02-08T12:07:11.603Z,25.67
2018-02-08T12:09:39.421Z,27.50
2018-02-08T12:12:07.267Z,33.10
2018-02-08T12:14:35.043Z,21.13
2018-02-08T12:17:02.836Z,20.40
2018-02-08T12:19:30.578Z,24.20
2018-02-08T12:21:58.447Z,24.00
2018-02-08T12:24:26.247Z,25.27
2018-02-08T12:26:54.110Z,24.10
2018-02-08T12:29:21.851Z,22.10
2018-02-08T12:31:49.639Z,22.60
2018-02-08T12:34:17.425Z,27.20
2018-02-08T12:36:45.231Z,21.77
2018-02-08T12:39:12.992Z,19.53
2018-02-08T12:41:40.760Z,24.03
2018-02-08T12:44:09.454Z,25.10
2018-02-08T12:46:37.367Z,23.23
2018-02-08T12:49:05.130Z,22.17
2018-02-08T12:51:32.879Z,20.80
2018-02-08T12:54:00.734Z,20.87
2018-02-08T12:56:28.466Z,23.10
2018-02-08T12:58:56.282Z,20.33
2018-02-08T13:01:24.042Z,20.40
2018-02-08T13:03:51.796Z,19.77
2018-02-08T13:06:19.531Z,23.63
2018-02-08T13:08:47.347Z,22.23
2018-02-08T13:11:15.203Z,24.13
2018-02-08T13:13:43.041Z,20.83
2018-02-08T13:16:11.268Z,21.37
2018-02-08T13:18:39.125Z,23.20
2018-02-08T13:21:07.080Z,24.00
2018-02-08T13:23:34.890Z,22.27
2018-02-08T13:26:02.719Z,22.90
2018-02-08T13:28:30.575Z,23.23
2018-02-08T13:30:58.415Z,21.50
2018-02-08T13:33:26.301Z,24.10
2018-02-08T13:35:54.126Z,22.07
2018-02-08T13:38:22.006Z,21.87
2018-02-08T13:40:49.851Z,22.43
2018-02-08T13:43:17.833Z,21.07
2018-02-08T13:45:45.732Z,23.57
2018-02-08T13:48:30.367Z,26.07
2018-02-08T13:51:03.829Z,24.57
2018-02-08T13:53:37.251Z,19.27
2018-02-08T13:59:32.001Z,21.10
2018-02-08T14:02:05.984Z,22.47
2018-02-08T14:04:33.916Z,23.50
2018-02-08T14:07:01.751Z,25.03
2018-02-08T14:09:29.663Z,22.43
2018-02-08T14:11:57.499Z,22.57
2018-02-08T14:14:25.419Z,23.00
2018-02-08T14:16:53.296Z,23.60
2018-02-08T14:19:21.187Z,22.70
2018-02-08T14:21:49.058Z,23.50
2018-02-08T14:24:17.073Z,19.90
2018-02-08T14:26:44.943Z,21.73
2018-02-08T14:29:12.884Z,24.53
2018-02-08T14:31:40.703Z,27.40
2018-02-08T14:34:08.613Z,26.00
2018-02-08T14:36:36.418Z,23.10
2018-02-08T14:39:04.392Z,26.23
2018-02-08T14:41:32.212Z,26.13
2018-02-08T14:44:00.041Z,21.07
2018-02-08T14:46:27.868Z,23.80
2018-02-08T14:48:55.758Z,23.80
2018-02-08T14:51:23.535Z,26.07
2018-02-08T14:53:51.419Z,25.40
2018-02-08T14:56:19.293Z,25.27
2018-02-08T14:58:47.158Z,25.47
2018-02-08T15:01:15.025Z,23.87
2018-02-08T15:03:42.925Z,24.43
2018-02-08T15:06:10.744Z,28.47
2018-02-08T15:08:38.611Z,24.20
2018-02-08T15:11:06.449Z,23.60
2018-02-08T15:13:34.423Z,28.23
2018-02-08T15:16:02.236Z,28.70
2018-02-08T15:18:30.079Z,25.57
2018-02-08T15:20:57.976Z,25.10
2018-02-08T15:23:26.024Z,31.70
2018-02-08T15:25:53.951Z,27.50
2018-02-08T15:28:21.801Z,30.70
2018-02-08T15:30:49.685Z,26.37
2018-02-08T15:33:17.528Z,31.00
2018-02-08T15:35:45.520Z,28.77
2018-02-08T15:38:14.508Z,26.30
2018-02-08T15:40:42.416Z,27.40
2018-02-08T15:43:10.339Z,24.57
2018-02-08T15:45:38.271Z,26.47
2018-02-08T15:48:06.139Z,24.40
2018-02-08T15:50:34.051Z,27.67
2018-02-08T15:53:01.879Z,29.80
2018-02-08T15:55:29.775Z,29.60
2018-02-08T15:57:57.672Z,27.83
2018-02-08T16:00:25.570Z,31.50
2018-02-08T16:02:53.411Z,29.57
2018-02-08T16:05:21.268Z,32.27
2018-02-08T16:07:49.123Z,27.73
2018-02-08T16:10:17.022Z,30.83
2018-02-08T16:12:44.863Z,31.30
2018-02-08T16:15:12.712Z,24.83
2018-02-08T16:17:40.511Z,27.33
2018-02-08T16:20:08.373Z,26.63
2018-02-08T16:22:36.276Z,29.00
2018-02-08T16:25:04.111Z,27.00
2018-02-08T16:27:32.012Z,27.83
2018-02-08T16:29:59.832Z,29.03
2018-02-08T16:32:27.696Z,26.10
2018-02-08T16:34:55.463Z,30.70
2018-02-08T16:37:23.327Z,26.83
2018-02-08T16:39:51.122Z,28.10
2018-02-08T16:42:19.105Z,29.17
2018-02-08T16:44:47.099Z,29.53
2018-02-08T16:47:14.995Z,29.33
2018-02-08T16:49:42.783Z,29.13
2018-02-08T16:52:10.659Z,28.57
2018-02-08T16:54:38.496Z,26.40
2018-02-08T16:57:06.359Z,26.77
2018-02-08T16:59:34.194Z,28.87
2018-02-08T17:02:01.976Z,25.57
2018-02-08T17:04:29.867Z,28.10
2018-02-08T17:06:57.700Z,26.15
2018-02-08T17:09:25.595Z,27.00
2018-02-08T17:11:53.375Z,25.67
2018-02-08T17:14:21.203Z,27.23
2018-02-08T17:16:49.002Z,33.10
2018-02-08T17:19:16.840Z,28.13
2018-02-08T17:21:44.685Z,26.83
2018-02-08T17:24:12.564Z,27.03
2018-02-08T17:26:40.449Z,28.20
2018-02-08T17:29:08.289Z,27.77
2018-02-08T17:31:36.161Z,27.77
2018-02-08T17:34:04.055Z,28.10
2018-02-08T17:36:31.897Z,30.50
2018-02-08T17:38:59.736Z,29.07
2018-02-08T17:41:27.619Z,30.20
2018-02-08T17:43:55.460Z,24.97
2018-02-08T17:46:23.393Z,25.23
2018-02-08T17:48:51.225Z,29.90
2018-02-08T17:51:19.197Z,26.73
2018-02-08T17:53:47.102Z,23.48
2018-02-08T17:56:14.996Z,25.90
2018-02-08T17:58:42.915Z,25.45
2018-02-08T18:01:10.873Z,29.97
2018-02-08T18:03:38.737Z,22.80
2018-02-08T18:06:06.657Z,29.95
2018-02-08T18:08:34.516Z,22.70
2018-02-08T18:11:02.423Z,27.40
2018-02-08T18:13:30.277Z,26.60
2018-02-08T18:15:58.169Z,23.10
2018-02-08T18:18:25.965Z,24.00
2018-02-08T18:20:53.881Z,25.00
2018-02-08T18:23:21.759Z,25.57
2018-02-08T18:25:49.622Z,27.30
2018-02-08T18:28:17.559Z,24.60
2018-02-08T18:30:45.440Z,22.03
2018-02-08T18:33:13.318Z,22.42
2018-02-08T18:35:41.202Z,24.70
2018-02-08T18:38:09.117Z,27.05
2018-02-08T18:40:37.015Z,24.02
2018-02-08T18:43:04.978Z,25.17
2018-02-08T18:45:32.810Z,26.73
2018-02-08T18:48:00.715Z,24.87
2018-02-08T18:50:28.576Z,23.43
2018-02-08T18:52:56.455Z,24.52
2018-02-08T18:55:24.326Z,22.70
2018-02-08T18:57:52.236Z,23.60
2018-02-08T19:00:20.049Z,25.23
2018-02-08T19:02:47.939Z,24.75
2018-02-08T19:05:15.864Z,23.83
2018-02-08T19:07:43.720Z,23.58
2018-02-08T19:10:11.639Z,23.60
2018-02-08T19:12:39.517Z,26.75
2018-02-08T19:15:07.417Z,29.25
2018-02-08T19:17:35.251Z,29.02
2018-02-08T19:20:03.187Z,29.02
2018-02-08T19:22:31.049Z,26.92
2018-02-08T19:24:58.939Z,23.25
2018-02-08T19:27:26.775Z,25.50
2018-02-08T19:29:54.654Z,25.02
2018-02-08T19:32:22.469Z,24.58
2018-02-08T19:34:50.335Z,26.30
2018-02-08T19:37:18.329Z,23.10
2018-02-08T19:39:46.211Z,21.85
2018-02-08T19:42:14.120Z,27.08
2018-02-08T19:44:41.988Z,27.02
2018-02-08T19:47:09.919Z,24.70
2018-02-08T19:49:37.797Z,26.70
2018-02-08T19:52:05.707Z,24.70
2018-02-08T19:54:33.562Z,29.65
2018-02-08T19:57:01.492Z,28.90
2018-02-08T19:59:29.362Z,27.48
2018-02-08T20:01:57.231Z,29.92
2018-02-08T20:04:25.034Z,31.05
2018-02-08T20:06:53.003Z,32.45
2018-02-08T20:09:20.908Z,26.45
2018-02-08T20:11:48.823Z,30.30
2018-02-08T20:14:22.251Z,26.48
2018-02-08T20:16:50.245Z,28.70
2018-02-08T20:19:18.132Z,25.90
2018-02-08T20:21:46.040Z,25.23
2018-02-08T20:24:13.887Z,27.02
2018-02-08T20:26:41.838Z,30.08
2018-02-08T20:29:09.759Z,26.92
2018-02-08T20:31:37.684Z,28.30
2018-02-08T20:34:05.603Z,29.17
2018-02-08T20:36:33.490Z,32.97
2018-02-08T20:39:01.417Z,25.98
2018-02-08T20:41:29.309Z,25.05
2018-02-08T20:43:57.303Z,25.88
2018-02-08T20:46:25.187Z,27.20
2018-02-08T20:48:53.101Z,25.85
2018-02-08T20:51:20.949Z,30.55
2018-02-08T20:53:48.869Z,25.52
2018-02-08T20:56:16.734Z,26.60
2018-02-08T20:58:44.647Z,31.30
2018-02-08T21:01:12.537Z,29.95
2018-02-08T21:03:40.455Z,29.05
2018-02-08T21:06:08.348Z,28.40
2018-02-08T21:08:36.209Z,27.00
2018-02-08T21:11:04.111Z,26.80
2018-02-08T21:13:32.016Z,29.90
2018-02-08T21:15:59.947Z,32.03
2018-02-08T21:18:27.790Z,27.45
2018-02-08T21:20:55.667Z,25.25
2018-02-08T21:23:23.500Z,30.62
2018-02-08T21:25:51.448Z,27.90
2018-02-08T21:28:19.300Z,31.15
2018-02-08T21:30:47.189Z,29.10
2018-02-08T21:33:15.097Z,28.00
2018-02-08T21:35:42.971Z,32.53
2018-02-08T21:38:10.844Z,26.92
2018-02-08T21:40:38.736Z,29.90
2018-02-08T21:43:06.606Z,33.85
2018-02-08T21:45:34.501Z,39.13
2018-02-08T21:48:02.381Z,31.50
2018-02-08T21:50:30.239Z,25.27
2018-02-08T21:52:58.126Z,29.30
2018-02-08T21:55:26.008Z,28.52
2018-02-08T21:57:53.907Z,28.75
2018-02-08T22:00:21.810Z,32.75
2018-02-08T22:02:49.678Z,38.63
2018-02-08T22:05:17.611Z,27.02
2018-02-08T22:07:45.548Z,27.90
2018-02-08T22:10:13.399Z,27.50
2018-02-08T22:12:41.339Z,27.90
2018-02-08T22:15:09.175Z,25.95
2018-02-08T22:17:37.127Z,31.20
2018-02-08T22:20:04.934Z,28.48
2018-02-08T22:22:32.835Z,34.42
2018-02-08T22:25:00.640Z,27.50
2018-02-08T22:27:28.519Z,31.60
2018-02-08T22:29:56.381Z,29.70
2018-02-08T22:32:24.226Z,25.88
2018-02-08T22:34:52.120Z,25.95
2018-02-08T22:37:19.952Z,31.02
2018-02-08T22:39:47.855Z,30.92
2018-02-08T22:42:15.733Z,30.52
2018-02-08T22:44:43.610Z,27.90
2018-02-08T22:47:11.458Z,28.50
2018-02-08T22:49:39.368Z,32.75
2018-02-08T22:52:07.222Z,30.33
2018-02-08T22:54:35.105Z,31.80
2018-02-08T22:57:02.914Z,29.87
2018-02-08T22:59:30.887Z,34.17
2018-02-08T23:01:58.739Z,24.35
2018-02-08T23:04:26.578Z,28.90
2018-02-08T23:06:54.452Z,33.75
2018-02-08T23:09:22.293Z,27.67
2018-02-08T23:11:50.170Z,26.80
2018-02-08T23:14:18.035Z,29.15
2018-02-08T23:16:45.930Z,26.92
2018-02-08T23:19:13.810Z,27.00
2018-02-08T23:21:41.701Z,31.30
2018-02-08T23:24:09.547Z,31.98
2018-02-08T23:26:37.454Z,29.48
2018-02-08T23:29:05.299Z,29.50
2018-02-08T23:31:33.223Z,32.38
2018-02-08T23:34:01.078Z,29.08
2018-02-08T23:36:28.951Z,29.35
2018-02-08T23:38:56.818Z,28.15
2018-02-08T23:41:24.682Z,30.00
2018-02-08T23:43:52.578Z,26.55
2018-02-08T23:46:20.495Z,32.22
2018-02-08T23:48:48.331Z,32.63
2018-02-08T23:51:16.226Z,29.70
2018-02-08T23:53:44.099Z,29.02
2018-02-08T23:56:11.918Z,34.10
2018-02-08T23:58:39.843Z,28.83
